createdAt,value
2018-02-13T00:01:20.653Z,0.50
2018-02-13T00:03:48.117Z,0.50
2018-02-13T00:06:15.577Z,0.40
2018-02-13T00:08:43.045Z,0.40
2018-02-13T00:11:11.296Z,0.40
2018-02-13T00:13:39.541Z,0.40
2018-02-13T00:16:07.057Z,0.30
2018-02-13T00:18:35.921Z,0.40
2018-02-13T00:21:03.382Z,0.40
2018-02-13T00:23:30.849Z,0.40
2018-02-13T00:25:58.304Z,0.50
2018-02-13T00:28:25.792Z,0.50
2018-02-13T00:30:53.308Z,0.50
2018-02-13T00:33:22.269Z,0.50
2018-02-13T00:35:49.916Z,0.50
2018-02-13T00:38:17.393Z,0.60
2018-02-13T00:40:44.857Z,0.50
2018-02-13T00:43:12.328Z,0.50
2018-02-13T00:45:40.573Z,0.40
2018-02-13T00:48:08.032Z,0.30
2018-02-13T00:50:35.505Z,0.40
2018-02-13T00:53:02.964Z,0.30
2018-02-13T00:55:30.445Z,0.40
2018-02-13T00:57:57.893Z,0.50
2018-02-13T01:00:25.360Z,0.30
2018-02-13T01:02:52.884Z,0.30
2018-02-13T01:05:20.342Z,0.40
2018-02-13T01:07:48.033Z,0.50
2018-02-13T01:10:15.561Z,0.50
2018-02-13T01:12:43.021Z,0.50
2018-02-13T01:15:10.489Z,0.70
2018-02-13T01:17:37.964Z,0.70
2018-02-13T01:20:05.500Z,0.70
2018-02-13T01:22:32.974Z,0.80
2018-02-13T01:25:00.451Z,0.70
2018-02-13T01:27:28.673Z,0.50
2018-02-13T01:29:56.141Z,0.50
2018-02-13T01:32:23.612Z,0.70
2018-02-13T01:34:51.072Z,0.70
2018-02-13T01:37:18.542Z,0.70
2018-02-13T01:39:46.164Z,0.40
2018-02-13T01:42:13.645Z,0.30
2018-02-13T01:44:41.113Z,0.30
2018-02-13T01:47:08.580Z,0.30
2018-02-13T01:49:36.808Z,0.30
2018-02-13T01:52:04.288Z,0.30
2018-02-13T01:54:31.755Z,0.20
2018-02-13T01:56:59.220Z,0.30
2018-02-13T01:59:26.687Z,0.30
2018-02-13T02:01:54.961Z,0.20
2018-02-13T02:04:23.217Z,0.10
2018-02-13T02:06:52.208Z,0.00
2018-02-13T02:09:19.695Z,0.00
2018-02-13T02:11:47.925Z,0.10
2018-02-13T02:14:15.404Z,0.10
2018-02-13T02:16:42.871Z,0.10
2018-02-13T02:19:10.346Z,0.10
2018-02-13T02:21:38.629Z,0.10
2018-02-13T02:24:06.102Z,0.10
2018-02-13T02:26:33.588Z,0.00
2018-02-13T02:29:01.053Z,0.00
2018-02-13T02:31:28.547Z,0.10
2018-02-13T02:33:56.773Z,0.10
2018-02-13T02:36:24.253Z,0.10
2018-02-13T02:38:51.796Z,0.10
2018-02-13T02:41:19.261Z,0.10
2018-02-13T02:43:46.730Z,0.20
2018-02-13T02:46:14.379Z,0.30
2018-02-13T02:48:41.804Z,0.20
2018-02-13T02:51:09.280Z,0.20
2018-02-13T02:53:36.738Z,0.10
2018-02-13T02:56:04.210Z,0.10
2018-02-13T02:58:31.769Z,0.10
2018-02-13T03:00:59.249Z,0.20
2018-02-13T03:03:27.488Z,0.10
2018-02-13T03:05:54.955Z,0.10
2018-02-13T03:08:22.437Z,0.20
2018-02-13T03:10:50.795Z,0.00
2018-02-13T03:13:18.274Z,-0.10
2018-02-13T03:15:46.537Z,-0.20
2018-02-13T03:18:14.004Z,-0.20
2018-02-13T03:20:42.232Z,-0.30
2018-02-13T03:23:09.700Z,-0.30
2018-02-13T03:25:37.160Z,-0.30
2018-02-13T03:28:04.645Z,-0.30
2018-02-13T03:30:32.881Z,-0.20
2018-02-13T03:33:00.346Z,-0.30
2018-02-13T03:35:27.817Z,-0.30
2018-02-13T03:37:56.898Z,-0.30
2018-02-13T03:40:24.378Z,-0.30
2018-02-13T03:42:51.840Z,-0.20
2018-02-13T03:45:19.309Z,-0.30
2018-02-13T03:47:47.578Z,-0.20
2018-02-13T03:50:15.819Z,-0.20
2018-02-13T03:52:43.284Z,-0.20
2018-02-13T03:55:10.762Z,-0.20
2018-02-13T03:57:38.237Z,-0.20
2018-02-13T04:00:05.697Z,-0.20
2018-02-13T04:02:33.332Z,-0.30
2018-02-13T04:05:00.793Z,-0.20
2018-02-13T04:07:29.045Z,-0.10
2018-02-13T04:09:56.520Z,-0.10
2018-02-13T04:12:24.001Z,-0.10
2018-02-13T04:14:52.229Z,-0.30
2018-02-13T04:17:19.798Z,-0.30
2018-02-13T04:19:47.271Z,-0.30
2018-02-13T04:22:14.788Z,-0.30
2018-02-13T04:24:42.258Z,-0.40
2018-02-13T04:27:09.716Z,-0.30
2018-02-13T04:29:37.183Z,-0.30
2018-02-13T04:32:04.664Z,-0.30
2018-02-13T04:34:32.888Z,-0.20
2018-02-13T04:37:01.176Z,-0.20
2018-02-13T04:39:28.668Z,-0.20
2018-02-13T04:41:56.132Z,-0.20
2018-02-13T04:44:24.369Z,-0.20
2018-02-13T04:46:51.906Z,-0.20
2018-02-13T04:49:19.553Z,-0.20
2018-02-13T04:51:47.021Z,-0.20
2018-02-13T04:54:14.496Z,-0.20
2018-02-13T04:56:41.970Z,-0.20
2018-02-13T04:59:09.522Z,-0.20
2018-02-13T05:01:37.136Z,-0.20
2018-02-13T05:04:04.608Z,-0.20
2018-02-13T05:06:32.085Z,-0.30
2018-02-13T05:08:59.541Z,-0.20
2018-02-13T05:11:27.033Z,-0.20
2018-02-13T05:13:55.092Z,-0.20
2018-02-13T05:16:22.564Z,-0.20
2018-02-13T05:18:50.796Z,-0.30
2018-02-13T05:21:18.280Z,-0.30
2018-02-13T05:23:45.765Z,-0.30
2018-02-13T05:26:14.025Z,-0.30
2018-02-13T05:28:41.501Z,-0.30
2018-02-13T05:31:09.757Z,-0.30
2018-02-13T05:33:37.232Z,-0.30
2018-02-13T05:36:05.456Z,-0.40
2018-02-13T05:38:32.920Z,-0.40
2018-02-13T05:41:00.425Z,-0.40
2018-02-13T05:43:27.871Z,-0.30
2018-02-13T05:45:56.125Z,-0.30
2018-02-13T05:48:23.604Z,-0.30
2018-02-13T05:50:51.819Z,-0.30
2018-02-13T05:53:19.356Z,-0.30
2018-02-13T05:55:46.834Z,-0.30
2018-02-13T05:58:14.320Z,-0.40
2018-02-13T06:00:41.785Z,-0.40
2018-02-13T06:03:09.319Z,-0.30
2018-02-13T06:05:36.789Z,-0.40
2018-02-13T06:08:04.277Z,-0.40
2018-02-13T06:10:31.754Z,-0.30
2018-02-13T06:12:59.217Z,-0.40
2018-02-13T06:15:26.697Z,-0.30
2018-02-13T06:17:54.152Z,-0.40
2018-02-13T06:20:21.734Z,-0.40
2018-02-13T06:22:49.198Z,-0.40
2018-02-13T06:25:16.677Z,-0.40
2018-02-13T06:27:44.140Z,-0.40
2018-02-13T06:30:12.380Z,-0.40
2018-02-13T06:32:39.845Z,-0.40
2018-02-13T06:35:08.097Z,-0.40
2018-02-13T06:37:35.777Z,-0.50
2018-02-13T06:40:03.272Z,-0.40
2018-02-13T06:42:31.531Z,-0.50
2018-02-13T06:44:59.780Z,-0.40
2018-02-13T06:47:27.441Z,-0.40
2018-02-13T06:49:54.910Z,-0.40
2018-02-13T06:52:22.384Z,-0.40
2018-02-13T06:54:50.628Z,-0.40
2018-02-13T06:57:18.118Z,-0.40
2018-02-13T06:59:46.344Z,-0.40
2018-02-13T07:02:13.828Z,-0.40
2018-02-13T07:04:41.298Z,-0.30
2018-02-13T07:07:08.785Z,-0.30
2018-02-13T07:09:37.020Z,-0.20
2018-02-13T07:12:04.572Z,-0.20
2018-02-13T07:14:32.037Z,-0.20
2018-02-13T07:16:59.500Z,-0.20
2018-02-13T07:19:27.008Z,-0.20
2018-02-13T07:21:55.293Z,-0.20
2018-02-13T07:24:22.773Z,-0.20
2018-02-13T07:26:50.248Z,-0.20
2018-02-13T07:29:17.849Z,-0.10
2018-02-13T07:31:45.346Z,-0.20
2018-02-13T07:34:12.827Z,-0.20
2018-02-13T07:36:40.284Z,0.00
2018-02-13T07:39:07.758Z,0.00
2018-02-13T07:41:36.821Z,0.40
2018-02-13T07:44:04.289Z,0.40
2018-02-13T07:46:31.909Z,2.50
2018-02-13T07:48:59.384Z,4.40
2018-02-13T07:51:26.845Z,5.40
2018-02-13T07:53:54.313Z,5.70
2018-02-13T07:56:21.793Z,6.60
2018-02-13T07:58:50.120Z,6.90
2018-02-13T08:01:17.913Z,6.80
2018-02-13T08:03:45.384Z,7.50
2018-02-13T08:06:12.865Z,7.20
2018-02-13T08:08:40.519Z,6.90
2018-02-13T08:11:08.766Z,6.00
2018-02-13T08:13:36.410Z,6.00
2018-02-13T08:16:03.897Z,6.00
2018-02-13T08:18:31.354Z,4.90
2018-02-13T08:20:58.912Z,4.20
2018-02-13T08:23:27.148Z,4.00
2018-02-13T08:25:54.633Z,4.00
2018-02-13T08:28:22.115Z,4.10
2018-02-13T08:30:51.115Z,3.70
2018-02-13T08:33:19.347Z,3.90
2018-02-13T08:35:46.812Z,3.90
2018-02-13T08:38:14.281Z,4.50
2018-02-13T08:40:42.508Z,3.50
2018-02-13T08:43:10.076Z,3.50
2018-02-13T08:45:37.551Z,3.20
2018-02-13T08:48:05.184Z,3.40
2018-02-13T08:50:32.659Z,3.50
2018-02-13T08:53:00.247Z,3.30
2018-02-13T08:55:29.407Z,3.30
2018-02-13T08:57:56.915Z,3.30
2018-02-13T09:00:24.372Z,3.30
2018-02-13T09:02:52.633Z,2.70
2018-02-13T09:05:20.092Z,2.70
2018-02-13T09:07:47.583Z,2.60
2018-02-13T09:10:15.060Z,2.70
2018-02-13T09:12:42.515Z,2.60
2018-02-13T09:15:09.976Z,3.00
2018-02-13T09:17:37.440Z,2.90
2018-02-13T09:20:04.909Z,3.20
2018-02-13T09:22:32.378Z,3.30
2018-02-13T09:24:59.852Z,3.20
2018-02-13T09:27:28.084Z,3.50
2018-02-13T09:29:55.633Z,3.50
2018-02-13T09:32:23.104Z,3.70
2018-02-13T09:34:50.639Z,3.50
2018-02-13T09:37:18.101Z,3.60
2018-02-13T09:39:45.565Z,3.70
2018-02-13T09:42:13.778Z,3.90
2018-02-13T09:44:41.297Z,4.10
2018-02-13T09:47:08.773Z,4.30
2018-02-13T09:49:36.237Z,4.50
2018-02-13T09:52:03.707Z,4.80
2018-02-13T09:54:31.173Z,4.60
2018-02-13T09:56:58.656Z,4.60
2018-02-13T09:59:26.981Z,4.10
2018-02-13T10:01:54.453Z,4.00
2018-02-13T10:04:21.907Z,4.10
2018-02-13T10:06:49.384Z,4.30
2018-02-13T10:09:16.856Z,4.40
2018-02-13T10:11:45.164Z,5.10
2018-02-13T10:14:12.649Z,5.10
2018-02-13T10:16:40.130Z,5.00
2018-02-13T10:19:15.071Z,5.20
2018-02-13T10:21:43.262Z,5.10
2018-02-13T10:24:10.736Z,5.10
2018-02-13T10:26:38.200Z,5.60
2018-02-13T10:29:05.667Z,5.40
2018-02-13T10:31:33.136Z,5.20
2018-02-13T10:34:00.612Z,5.40
2018-02-13T10:36:28.125Z,5.30
2018-02-13T10:38:55.588Z,5.40
2018-02-13T10:41:23.083Z,5.90
2018-02-13T10:43:50.518Z,5.90
2018-02-13T10:46:18.031Z,5.80
2018-02-13T10:48:45.471Z,5.70
2018-02-13T10:51:13.706Z,5.70
2018-02-13T10:53:41.168Z,5.70
2018-02-13T10:56:08.650Z,6.00
2018-02-13T10:58:36.929Z,6.00
2018-02-13T11:01:10.821Z,5.90
2018-02-13T11:03:38.276Z,5.90
2018-02-13T11:06:05.756Z,6.00
2018-02-13T11:08:33.224Z,6.00
2018-02-13T11:11:00.697Z,6.10
2018-02-13T11:13:28.168Z,6.20
2018-02-13T11:15:55.624Z,6.20
2018-02-13T11:18:23.108Z,6.10
2018-02-13T11:20:50.573Z,6.00
2018-02-13T11:23:18.049Z,6.10
2018-02-13T11:25:46.317Z,6.40
2018-02-13T11:28:13.786Z,6.40
2018-02-13T11:30:42.018Z,6.40
2018-02-13T11:33:09.488Z,6.40
2018-02-13T11:35:36.962Z,6.60
2018-02-13T11:38:05.297Z,6.40
2018-02-13T11:40:32.788Z,6.30
2018-02-13T11:43:00.244Z,6.30
2018-02-13T11:45:27.720Z,6.30
2018-02-13T11:47:56.102Z,6.50
2018-02-13T11:50:24.071Z,6.50
2018-02-13T11:52:51.553Z,6.40
2018-02-13T11:55:19.018Z,6.40
2018-02-13T11:57:46.486Z,6.80
2018-02-13T12:00:13.940Z,6.80
2018-02-13T12:02:41.402Z,6.60
2018-02-13T12:05:08.874Z,6.90
2018-02-13T12:07:36.361Z,6.90
2018-02-13T12:10:03.823Z,7.30
2018-02-13T12:12:32.077Z,7.50
2018-02-13T12:14:59.552Z,7.50
2018-02-13T12:17:27.029Z,7.90
2018-02-13T12:19:54.548Z,8.30
2018-02-13T12:22:22.014Z,8.60
2018-02-13T12:24:49.474Z,9.00
2018-02-13T12:27:16.930Z,9.60
2018-02-13T12:29:44.407Z,9.80
2018-02-13T12:32:12.651Z,10.10
2018-02-13T12:34:40.297Z,10.10
2018-02-13T12:37:07.786Z,10.10
2018-02-13T12:39:36.077Z,9.50
2018-02-13T12:42:04.307Z,9.80
2018-02-13T12:44:31.761Z,9.80
2018-02-13T12:46:59.219Z,9.40
2018-02-13T12:49:26.700Z,9.40
2018-02-13T12:51:54.215Z,9.80
2018-02-13T12:54:21.742Z,10.30
2018-02-13T12:56:49.233Z,10.20
2018-02-13T12:59:16.714Z,9.70
2018-02-13T13:01:44.261Z,9.50
2018-02-13T13:04:11.721Z,9.10
2018-02-13T13:06:39.219Z,9.20
2018-02-13T13:09:06.688Z,9.50
2018-02-13T13:11:34.157Z,9.10
2018-02-13T13:14:01.604Z,8.80
2018-02-13T13:16:29.899Z,8.60
2018-02-13T13:18:57.344Z,8.50
2018-02-13T13:21:24.817Z,8.70
2018-02-13T13:23:52.281Z,8.70
2018-02-13T13:26:19.791Z,8.40
2018-02-13T13:28:47.208Z,8.10
2018-02-13T13:31:14.856Z,8.10
2018-02-13T13:33:42.332Z,8.10
2018-02-13T13:36:09.801Z,8.30
2018-02-13T13:38:37.360Z,8.30
2018-02-13T13:41:04.822Z,8.00
2018-02-13T13:43:32.389Z,8.20
2018-02-13T13:45:59.850Z,8.40
2018-02-13T13:48:27.578Z,8.40
2018-02-13T13:50:55.033Z,8.30
2018-02-13T13:53:22.633Z,8.30
2018-02-13T13:55:50.997Z,8.40
2018-02-13T13:58:18.472Z,8.30
2018-02-13T14:00:46.710Z,7.70
2018-02-13T14:03:14.159Z,7.70
2018-02-13T14:05:41.624Z,7.80
2018-02-13T14:08:09.356Z,8.00
2018-02-13T14:10:36.826Z,7.90
2018-02-13T14:13:04.302Z,8.20
2018-02-13T14:15:31.753Z,7.80
2018-02-13T14:17:59.227Z,7.80
2018-02-13T14:20:26.696Z,7.60
2018-02-13T14:22:54.179Z,7.50
2018-02-13T14:25:22.410Z,7.80
2018-02-13T14:27:49.899Z,7.80
2018-02-13T14:30:18.136Z,8.00
2018-02-13T14:32:45.623Z,8.00
2018-02-13T14:35:13.090Z,7.90
2018-02-13T14:37:41.333Z,7.40
2018-02-13T14:40:08.793Z,7.40
2018-02-13T14:42:36.264Z,7.30
2018-02-13T14:45:03.717Z,7.30
2018-02-13T14:47:31.213Z,7.40
2018-02-13T14:49:59.445Z,7.40
2018-02-13T14:52:26.933Z,7.40
2018-02-13T14:54:55.148Z,7.30
2018-02-13T14:57:22.610Z,7.30
2018-02-13T14:59:50.158Z,7.00
2018-02-13T15:02:17.681Z,7.10
2018-02-13T15:04:45.915Z,6.90
2018-02-13T15:07:13.388Z,6.90
2018-02-13T15:09:40.856Z,6.90
2018-02-13T15:12:09.088Z,6.70
2018-02-13T15:14:55.381Z,6.70
2018-02-13T15:17:26.514Z,6.70
2018-02-13T15:19:53.988Z,6.50
2018-02-13T15:22:22.385Z,6.40
2018-02-13T15:24:49.849Z,6.30
2018-02-13T15:27:18.077Z,6.10
2018-02-13T15:29:45.537Z,6.10
2018-02-13T15:32:13.014Z,6.00
2018-02-13T15:34:40.572Z,6.00
2018-02-13T15:37:08.089Z,5.90
2018-02-13T15:39:35.621Z,6.10
2018-02-13T15:42:03.077Z,5.90
2018-02-13T15:44:30.557Z,5.90
2018-02-13T15:47:16.909Z,5.80
2018-02-13T15:49:44.511Z,5.70
2018-02-13T15:52:12.748Z,5.50
2018-02-13T15:54:40.278Z,5.40
2018-02-13T15:57:07.744Z,5.40
2018-02-13T15:59:35.211Z,5.30
2018-02-13T16:02:02.684Z,5.20
2018-02-13T16:04:30.303Z,5.20
2018-02-13T16:06:57.757Z,5.10
2018-02-13T16:09:25.229Z,5.00
2018-02-13T16:11:52.695Z,5.00
2018-02-13T16:14:20.131Z,4.90
2018-02-13T16:16:47.612Z,5.00
2018-02-13T16:19:15.197Z,4.90
2018-02-13T16:21:42.701Z,4.80
2018-02-13T16:24:10.904Z,4.80
2018-02-13T16:26:38.538Z,4.70
2018-02-13T16:29:06.034Z,4.70
2018-02-13T16:31:33.490Z,4.70
2018-02-13T16:34:00.978Z,4.70
2018-02-13T16:36:29.191Z,4.50
2018-02-13T16:38:56.853Z,4.50
2018-02-13T16:41:24.309Z,4.50
2018-02-13T16:43:51.802Z,4.50
2018-02-13T16:46:19.261Z,4.40
2018-02-13T16:48:46.736Z,4.40
2018-02-13T16:51:14.198Z,4.50
2018-02-13T16:53:41.752Z,4.40
2018-02-13T16:56:09.993Z,4.30
2018-02-13T16:58:37.469Z,4.30
2018-02-13T17:01:04.954Z,4.30
2018-02-13T17:03:33.174Z,4.20
2018-02-13T17:06:00.645Z,4.20
2018-02-13T17:08:28.113Z,4.20
2018-02-13T17:10:55.573Z,4.10
2018-02-13T17:13:23.193Z,4.10
2018-02-13T17:15:50.660Z,4.10
2018-02-13T17:18:18.118Z,4.10
2018-02-13T17:20:45.581Z,4.00
2018-02-13T17:23:13.197Z,4.00
2018-02-13T17:25:41.432Z,4.00
2018-02-13T17:28:08.907Z,4.00
2018-02-13T17:30:36.509Z,3.90
2018-02-13T17:33:03.975Z,3.90
2018-02-13T17:35:31.437Z,3.90
2018-02-13T17:37:58.924Z,3.90
2018-02-13T17:40:26.404Z,3.90
2018-02-13T17:42:54.645Z,3.80
2018-02-13T17:45:22.115Z,3.80
2018-02-13T17:47:49.757Z,3.70
2018-02-13T17:50:17.220Z,3.70
2018-02-13T17:52:44.721Z,3.70
2018-02-13T17:55:12.936Z,3.60
2018-02-13T17:57:40.405Z,3.60
2018-02-13T18:00:07.868Z,3.60
2018-02-13T18:02:35.735Z,3.60
2018-02-13T18:05:03.220Z,3.60
2018-02-13T18:07:31.456Z,3.50
2018-02-13T18:09:58.928Z,3.50
2018-02-13T18:12:26.424Z,3.50
2018-02-13T18:14:54.662Z,3.40
2018-02-13T18:17:22.125Z,3.40
2018-02-13T18:19:49.596Z,3.40
2018-02-13T18:22:18.025Z,3.50
2018-02-13T18:24:45.532Z,3.40
2018-02-13T18:27:12.964Z,3.40
2018-02-13T18:29:40.444Z,3.30
2018-02-13T18:32:08.684Z,3.60
2018-02-13T18:34:36.803Z,3.60
2018-02-13T18:37:05.033Z,3.40
2018-02-13T18:39:32.662Z,3.40
2018-02-13T18:42:00.444Z,3.40
2018-02-13T18:44:28.342Z,3.40
2018-02-13T18:46:55.829Z,3.30
2018-02-13T18:49:24.185Z,3.30
2018-02-13T18:51:51.706Z,3.30
2018-02-13T18:54:19.626Z,3.30
2018-02-13T18:56:47.865Z,3.20
2018-02-13T18:59:15.370Z,3.20
2018-02-13T19:01:43.589Z,3.20
2018-02-13T19:04:11.061Z,3.20
2018-02-13T19:06:38.535Z,3.10
2018-02-13T19:09:06.196Z,3.10
2018-02-13T19:11:33.664Z,3.10
2018-02-13T19:14:01.917Z,3.10
2018-02-13T19:16:29.389Z,3.00
2018-02-13T19:18:56.856Z,2.90
2018-02-13T19:21:25.170Z,2.80
2018-02-13T19:23:52.638Z,2.80
2018-02-13T19:26:20.991Z,2.80
2018-02-13T19:28:48.449Z,2.80
2018-02-13T19:31:15.919Z,2.80
2018-02-13T19:33:43.385Z,2.70
2018-02-13T19:36:10.864Z,2.60
2018-02-13T19:38:38.324Z,2.60
2018-02-13T19:41:05.786Z,2.50
2018-02-13T19:43:33.297Z,2.60
2018-02-13T19:46:00.741Z,2.60
2018-02-13T19:48:28.341Z,2.50
2018-02-13T19:50:55.799Z,2.40
2018-02-13T19:53:23.292Z,2.50
2018-02-13T19:55:50.751Z,2.40
2018-02-13T19:58:18.218Z,2.40
2018-02-13T20:00:46.585Z,2.50
2018-02-13T20:03:14.822Z,2.40
2018-02-13T20:05:42.279Z,2.40
2018-02-13T20:08:09.839Z,2.40
2018-02-13T20:10:37.299Z,2.50
2018-02-13T20:13:04.772Z,2.40
2018-02-13T20:15:32.232Z,2.30
2018-02-13T20:17:59.688Z,2.30
2018-02-13T20:20:27.361Z,2.30
2018-02-13T20:22:55.597Z,2.30
2018-02-13T20:25:23.082Z,2.30
2018-02-13T20:27:50.549Z,2.20
2018-02-13T20:30:18.797Z,2.20
2018-02-13T20:32:46.266Z,2.20
2018-02-13T20:35:13.741Z,2.20
2018-02-13T20:37:41.982Z,2.20
2018-02-13T20:40:09.474Z,2.10
2018-02-13T20:42:37.712Z,2.00
2018-02-13T20:45:05.262Z,2.00
2018-02-13T20:47:32.736Z,1.90
2018-02-13T20:50:00.206Z,1.80
2018-02-13T20:52:27.688Z,1.80
2018-02-13T20:54:56.053Z,1.80
2018-02-13T20:57:23.565Z,1.80
2018-02-13T20:59:51.205Z,1.80
2018-02-13T21:02:18.681Z,1.70
2018-02-13T21:04:46.675Z,1.70
2018-02-13T21:07:14.244Z,1.70
2018-02-13T21:09:41.718Z,1.70
2018-02-13T21:12:09.189Z,1.60
2018-02-13T21:14:37.434Z,1.60
2018-02-13T21:17:05.753Z,1.50
2018-02-13T21:19:33.474Z,1.60
2018-02-13T21:22:01.914Z,1.50
2018-02-13T21:24:29.433Z,1.50
2018-02-13T21:26:57.653Z,1.50
2018-02-13T21:29:25.160Z,1.50
2018-02-13T21:31:52.710Z,1.50
2018-02-13T21:34:20.330Z,1.40
2018-02-13T21:36:47.954Z,1.40
2018-02-13T21:39:16.386Z,1.40
2018-02-13T21:41:43.888Z,1.40
2018-02-13T21:44:12.228Z,1.30
2018-02-13T21:46:39.700Z,1.30
2018-02-13T21:49:07.341Z,1.30
2018-02-13T21:51:34.940Z,1.30
2018-02-13T21:54:03.181Z,1.20
2018-02-13T21:56:30.653Z,1.20
2018-02-13T21:58:58.108Z,1.20
2018-02-13T22:01:26.494Z,1.20
2018-02-13T22:03:54.843Z,1.20
2018-02-13T22:06:22.314Z,1.20
2018-02-13T22:08:50.094Z,1.20
2018-02-13T22:11:17.569Z,1.10
2018-02-13T22:13:45.168Z,1.10
2018-02-13T22:16:12.861Z,1.10
2018-02-13T22:18:40.521Z,1.10
2018-02-13T22:21:08.019Z,1.10
2018-02-13T22:23:35.609Z,1.00
2018-02-13T22:26:03.136Z,1.00
2018-02-13T22:28:30.618Z,1.00
2018-02-13T22:30:58.197Z,1.10
2018-02-13T22:33:26.376Z,1.00
2018-02-13T22:35:53.852Z,1.00
2018-02-13T22:38:22.836Z,1.00
2018-02-13T22:40:50.303Z,1.00
2018-02-13T22:43:18.549Z,1.10
2018-02-13T22:45:46.002Z,1.10
2018-02-13T22:48:14.224Z,1.10
2018-02-13T22:50:42.452Z,1.10
2018-02-13T22:53:09.936Z,1.10
2018-02-13T22:55:37.494Z,1.00
2018-02-13T22:58:04.999Z,1.00
2018-02-13T23:00:32.474Z,0.90
2018-02-13T23:03:00.021Z,0.90
2018-02-13T23:05:27.495Z,0.90
2018-02-13T23:07:55.076Z,0.90
2018-02-13T23:10:22.709Z,0.80
2018-02-13T23:12:50.165Z,0.90
2018-02-13T23:15:17.661Z,0.80
2018-02-13T23:17:45.122Z,0.80
2018-02-13T23:20:12.594Z,0.80
2018-02-13T23:22:40.829Z,0.80
2018-02-13T23:25:08.401Z,0.80
2018-02-13T23:27:35.880Z,0.80
2018-02-13T23:30:03.373Z,0.70
2018-02-13T23:32:30.834Z,0.70
2018-02-13T23:34:58.296Z,0.60
2018-02-13T23:37:25.804Z,0.60
2018-02-13T23:39:53.269Z,0.60
2018-02-13T23:42:21.517Z,0.60
2018-02-13T23:44:48.985Z,0.50
2018-02-13T23:47:16.560Z,0.60
2018-02-13T23:49:44.801Z,0.50
2018-02-13T23:52:12.255Z,0.50
2018-02-13T23:54:39.708Z,0.60
2018-02-13T23:57:07.180Z,0.60
2018-02-13T23:59:34.653Z,0.50
